Anderson, California
Current Conditions -  °F | °C
As of 4:53 PM on Friday 24 Oct 2014 (Local Time) from KRDD Reporting Station
Clear Clear  
Wind Chill: 71°   Ceiling: Unl
Heat Index: 71°   Visibility: 10mi
Dew Point: 54°   Wind: 8mph
Humidity: 55%   Direction: 200°SSW
Pressure: 29.83"   Gusts: NA
Location:  40.45°N, 122.3°W
Report Text: KRDD 242353Z 20007KT 10SM CLR 22/12 A2983 RMK AO2 SLP099 T02170122 10228 20178 58022
Loading
Personal Weather Stations






























Interactive Weather Map New forecast layout! Learn more

10-Day Weather Forecast

Advertisements
Track Severe Weather on mobile